sensor_id;sensor_type;location;lat;lon;timestamp;P1;durP1;ratioP1;P2;durP2;ratioP2
30888;SDS011;51092;50.874;7.024;2022-12-18T00:00:45;31.50;;;17.13;;
30888;SDS011;51092;50.874;7.024;2022-12-18T00:01:48;29.13;;;16.80;;
30888;SDS011;51092;50.874;7.024;2022-12-18T00:02:49;31.75;;;16.92;;
30888;SDS011;51092;50.874;7.024;2022-12-18T00:03:52;31.67;;;15.77;;
30888;SDS011;51092;50.874;7.024;2022-12-18T00:04:55;29.92;;;16.52;;
30888;SDS011;51092;50.874;7.024;2022-12-18T00:06:00;30.27;;;17.27;;
30888;SDS011;51092;50.874;7.024;2022-12-18T00:07:02;30.77;;;17.42;;
30888;SDS011;51092;50.874;7.024;2022-12-18T00:08:04;32.25;;;18.05;;
30888;SDS011;51092;50.874;7.024;2022-12-18T00:09:06;33.75;;;17.60;;
30888;SDS011;51092;50.874;7.024;2022-12-18T00:10:10;32.05;;;18.50;;
30888;SDS011;51092;50.874;7.024;2022-12-18T00:11:13;27.35;;;15.35;;
30888;SDS011;51092;50.874;7.024;2022-12-18T00:12:16;35.97;;;17.45;;
30888;SDS011;51092;50.874;7.024;2022-12-18T00:13:19;35.42;;;16.42;;
30888;SDS011;51092;50.874;7.024;2022-12-18T00:14:20;33.95;;;17.10;;
30888;SDS011;51092;50.874;7.024;2022-12-18T00:15:23;25.95;;;15.75;;
30888;SDS011;51092;50.874;7.024;2022-12-18T00:16:24;32.58;;;18.27;;
30888;SDS011;51092;50.874;7.024;2022-12-18T00:17:28;32.08;;;17.90;;
30888;SDS011;51092;50.874;7.024;2022-12-18T00:18:29;30.35;;;17.35;;
30888;SDS011;51092;50.874;7.024;2022-12-18T00:19:32;28.08;;;16.00;;
30888;SDS011;51092;50.874;7.024;2022-12-18T00:20:35;33.33;;;16.98;;
30888;SDS011;51092;50.874;7.024;2022-12-18T00:21:39;29.58;;;17.27;;
30888;SDS011;51092;50.874;7.024;2022-12-18T00:22:41;32.92;;;17.90;;
30888;SDS011;51092;50.874;7.024;2022-12-18T00:23:45;31.73;;;17.30;;
30888;SDS011;51092;50.874;7.024;2022-12-18T00:24:48;33.95;;;17.63;;
30888;SDS011;51092;50.874;7.024;2022-12-18T00:25:52;31.52;;;16.85;;
30888;SDS011;51092;50.874;7.024;2022-12-18T00:26:53;32.10;;;17.52;;
30888;SDS011;51092;50.874;7.024;2022-12-18T00:27:56;33.83;;;17.92;;
30888;SDS011;51092;50.874;7.024;2022-12-18T00:28:58;31.90;;;16.65;;
30888;SDS011;51092;50.874;7.024;2022-12-18T00:30:02;31.55;;;17.58;;
30888;SDS011;51092;50.874;7.024;2022-12-18T00:31:04;37.13;;;18.90;;
30888;SDS011;51092;50.874;7.024;2022-12-18T00:32:08;31.90;;;17.48;;
30888;SDS011;51092;50.874;7.024;2022-12-18T00:33:09;32.60;;;16.52;;
30888;SDS011;51092;50.874;7.024;2022-12-18T00:34:12;32.78;;;17.27;;
30888;SDS011;51092;50.874;7.024;2022-12-18T00:35:15;29.92;;;17.63;;
30888;SDS011;51092;50.874;7.024;2022-12-18T00:36:18;32.80;;;17.60;;
30888;SDS011;51092;50.874;7.024;2022-12-18T00:37:21;32.63;;;17.65;;
30888;SDS011;51092;50.874;7.024;2022-12-18T00:38:23;27.98;;;15.15;;
30888;SDS011;51092;50.874;7.024;2022-12-18T00:39:25;32.78;;;17.45;;
30888;SDS011;51092;50.874;7.024;2022-12-18T00:40:28;34.97;;;18.35;;
30888;SDS011;51092;50.874;7.024;2022-12-18T00:41:31;33.67;;;17.02;;
30888;SDS011;51092;50.874;7.024;2022-12-18T00:42:51;33.13;;;17.70;;
30888;SDS011;51092;50.874;7.024;2022-12-18T00:43:59;30.52;;;17.25;;
30888;SDS011;51092;50.874;7.024;2022-12-18T00:45:01;34.95;;;18.17;;
30888;SDS011;51092;50.874;7.024;2022-12-18T00:46:02;31.35;;;16.38;;
30888;SDS011;51092;50.874;7.024;2022-12-18T00:47:05;34.92;;;19.02;;
30888;SDS011;51092;50.874;7.024;2022-12-18T00:48:06;32.15;;;17.05;;
30888;SDS011;51092;50.874;7.024;2022-12-18T00:49:09;30.17;;;16.98;;
30888;SDS011;51092;50.874;7.024;2022-12-18T00:50:13;31.48;;;16.90;;
30888;SDS011;51092;50.874;7.024;2022-12-18T00:51:15;37.35;;;18.48;;
30888;SDS011;51092;50.874;7.024;2022-12-18T00:52:17;33.42;;;16.67;;
30888;SDS011;51092;50.874;7.024;2022-12-18T00:53:19;34.72;;;18.95;;
30888;SDS011;51092;50.874;7.024;2022-12-18T00:54:21;36.90;;;18.88;;
30888;SDS011;51092;50.874;7.024;2022-12-18T00:55:24;36.58;;;20.40;;
30888;SDS011;51092;50.874;7.024;2022-12-18T00:56:25;37.15;;;17.23;;
30888;SDS011;51092;50.874;7.024;2022-12-18T00:57:29;32.58;;;16.50;;
30888;SDS011;51092;50.874;7.024;2022-12-18T00:58:30;34.72;;;17.92;;
30888;SDS011;51092;50.874;7.024;2022-12-18T00:59:40;33.45;;;17.75;;
30888;SDS011;51092;50.874;7.024;2022-12-18T01:00:42;30.38;;;16.45;;
30888;SDS011;51092;50.874;7.024;2022-12-18T01:01:45;36.78;;;16.38;;
30888;SDS011;51092;50.874;7.024;2022-12-18T01:02:47;32.60;;;17.67;;
30888;SDS011;51092;50.874;7.024;2022-12-18T01:03:50;33.22;;;16.88;;
30888;SDS011;51092;50.874;7.024;2022-12-18T01:04:51;30.25;;;16.15;;
30888;SDS011;51092;50.874;7.024;2022-12-18T01:05:54;33.38;;;16.98;;
30888;SDS011;51092;50.874;7.024;2022-12-18T01:06:56;31.75;;;17.17;;
30888;SDS011;51092;50.874;7.024;2022-12-18T01:07:57;31.90;;;17.67;;
30888;SDS011;51092;50.874;7.024;2022-12-18T01:09:00;37.80;;;19.15;;
30888;SDS011;51092;50.874;7.024;2022-12-18T01:10:03;28.48;;;16.45;;
30888;SDS011;51092;50.874;7.024;2022-12-18T01:11:07;30.85;;;16.58;;
30888;SDS011;51092;50.874;7.024;2022-12-18T01:12:08;34.97;;;17.55;;
30888;SDS011;51092;50.874;7.024;2022-12-18T01:13:12;31.33;;;17.77;;
30888;SDS011;51092;50.874;7.024;2022-12-18T01:14:14;34.67;;;18.13;;
30888;SDS011;51092;50.874;7.024;2022-12-18T01:15:16;34.03;;;18.33;;
30888;SDS011;51092;50.874;7.024;2022-12-18T01:16:18;29.08;;;15.95;;
30888;SDS011;51092;50.874;7.024;2022-12-18T01:17:21;37.88;;;17.92;;
30888;SDS011;51092;50.874;7.024;2022-12-18T01:18:23;36.60;;;17.95;;
30888;SDS011;51092;50.874;7.024;2022-12-18T01:19:25;41.67;;;20.27;;
30888;SDS011;51092;50.874;7.024;2022-12-18T01:20:28;30.42;;;16.33;;
30888;SDS011;51092;50.874;7.024;2022-12-18T01:21:29;30.95;;;16.98;;
30888;SDS011;51092;50.874;7.024;2022-12-18T01:22:32;30.33;;;17.00;;
30888;SDS011;51092;50.874;7.024;2022-12-18T01:23:36;33.00;;;18.38;;
30888;SDS011;51092;50.874;7.024;2022-12-18T01:24:39;36.15;;;18.55;;
30888;SDS011;51092;50.874;7.024;2022-12-18T01:25:39;31.70;;;18.67;;
30888;SDS011;51092;50.874;7.024;2022-12-18T01:26:41;34.70;;;17.98;;
30888;SDS011;51092;50.874;7.024;2022-12-18T01:27:42;35.85;;;17.55;;
30888;SDS011;51092;50.874;7.024;2022-12-18T01:28:45;33.22;;;18.02;;
30888;SDS011;51092;50.874;7.024;2022-12-18T01:29:47;32.92;;;18.67;;
30888;SDS011;51092;50.874;7.024;2022-12-18T01:30:51;30.35;;;15.68;;
30888;SDS011;51092;50.874;7.024;2022-12-18T01:31:54;32.92;;;18.92;;
30888;SDS011;51092;50.874;7.024;2022-12-18T01:32:57;30.92;;;17.30;;
30888;SDS011;51092;50.874;7.024;2022-12-18T01:34:00;34.85;;;17.35;;
30888;SDS011;51092;50.874;7.024;2022-12-18T01:35:03;39.72;;;20.05;;
30888;SDS011;51092;50.874;7.024;2022-12-18T01:36:06;32.45;;;18.30;;
30888;SDS011;51092;50.874;7.024;2022-12-18T01:37:09;38.30;;;19.20;;
30888;SDS011;51092;50.874;7.024;2022-12-18T01:38:11;32.88;;;18.10;;
30888;SDS011;51092;50.874;7.024;2022-12-18T01:39:14;40.05;;;20.58;;
30888;SDS011;51092;50.874;7.024;2022-12-18T01:40:15;31.88;;;18.35;;
30888;SDS011;51092;50.874;7.024;2022-12-18T01:41:19;39.70;;;19.65;;
30888;SDS011;51092;50.874;7.024;2022-12-18T01:42:22;30.80;;;17.33;;
30888;SDS011;51092;50.874;7.024;2022-12-18T01:43:40;34.28;;;18.50;;
30888;SDS011;51092;50.874;7.024;2022-12-18T01:44:55;30.08;;;19.83;;
30888;SDS011;51092;50.874;7.024;2022-12-18T01:46:00;37.15;;;18.95;;
30888;SDS011;51092;50.874;7.024;2022-12-18T01:47:01;41.55;;;19.23;;
30888;SDS011;51092;50.874;7.024;2022-12-18T01:48:04;34.00;;;17.65;;
30888;SDS011;51092;50.874;7.024;2022-12-18T01:49:09;34.28;;;18.38;;
30888;SDS011;51092;50.874;7.024;2022-12-18T01:50:12;36.15;;;19.83;;
30888;SDS011;51092;50.874;7.024;2022-12-18T01:51:15;31.85;;;19.67;;
30888;SDS011;51092;50.874;7.024;2022-12-18T01:52:18;36.08;;;17.48;;
30888;SDS011;51092;50.874;7.024;2022-12-18T01:53:22;33.97;;;17.60;;
30888;SDS011;51092;50.874;7.024;2022-12-18T01:54:25;35.22;;;19.02;;
30888;SDS011;51092;50.874;7.024;2022-12-18T01:55:30;38.88;;;19.80;;
30888;SDS011;51092;50.874;7.024;2022-12-18T01:56:36;32.40;;;18.48;;
30888;SDS011;51092;50.874;7.024;2022-12-18T01:57:41;31.38;;;18.40;;
30888;SDS011;51092;50.874;7.024;2022-12-18T01:58:50;35.55;;;18.67;;
30888;SDS011;51092;50.874;7.024;2022-12-18T02:01:01;29.00;;;16.95;;
30888;SDS011;51092;50.874;7.024;2022-12-18T02:02:02;34.20;;;18.65;;
30888;SDS011;51092;50.874;7.024;2022-12-18T02:03:04;31.48;;;16.92;;
30888;SDS011;51092;50.874;7.024;2022-12-18T02:04:19;29.98;;;17.15;;
30888;SDS011;51092;50.874;7.024;2022-12-18T02:05:24;32.25;;;18.13;;
30888;SDS011;51092;50.874;7.024;2022-12-18T02:06:36;39.58;;;19.17;;
30888;SDS011;51092;50.874;7.024;2022-12-18T02:07:45;35.42;;;18.05;;
30888;SDS011;51092;50.874;7.024;2022-12-18T02:08:57;36.03;;;17.83;;
30888;SDS011;51092;50.874;7.024;2022-12-18T02:10:05;36.60;;;19.02;;
30888;SDS011;51092;50.874;7.024;2022-12-18T02:11:13;32.42;;;18.35;;
30888;SDS011;51092;50.874;7.024;2022-12-18T02:12:20;33.13;;;17.15;;
30888;SDS011;51092;50.874;7.024;2022-12-18T02:13:25;32.53;;;18.23;;
30888;SDS011;51092;50.874;7.024;2022-12-18T02:14:34;31.83;;;17.30;;
30888;SDS011;51092;50.874;7.024;2022-12-18T02:15:43;34.35;;;17.67;;
30888;SDS011;51092;50.874;7.024;2022-12-18T02:16:52;32.08;;;18.05;;
30888;SDS011;51092;50.874;7.024;2022-12-18T02:18:02;34.72;;;17.27;;
30888;SDS011;51092;50.874;7.024;2022-12-18T02:19:12;34.28;;;19.58;;
30888;SDS011;51092;50.874;7.024;2022-12-18T02:20:20;32.28;;;18.63;;
30888;SDS011;51092;50.874;7.024;2022-12-18T02:21:28;28.50;;;16.88;;
30888;SDS011;51092;50.874;7.024;2022-12-18T02:22:36;32.35;;;15.93;;
30888;SDS011;51092;50.874;7.024;2022-12-18T02:23:51;33.05;;;17.42;;
30888;SDS011;51092;50.874;7.024;2022-12-18T02:25:06;37.08;;;18.90;;
30888;SDS011;51092;50.874;7.024;2022-12-18T02:26:26;36.22;;;19.30;;
30888;SDS011;51092;50.874;7.024;2022-12-18T02:27:31;33.30;;;18.35;;
30888;SDS011;51092;50.874;7.024;2022-12-18T02:28:36;34.50;;;17.77;;
30888;SDS011;51092;50.874;7.024;2022-12-18T02:29:43;33.13;;;18.00;;
30888;SDS011;51092;50.874;7.024;2022-12-18T02:30:50;36.15;;;18.25;;
30888;SDS011;51092;50.874;7.024;2022-12-18T02:31:53;29.30;;;16.88;;
30888;SDS011;51092;50.874;7.024;2022-12-18T02:33:04;33.83;;;19.23;;
30888;SDS011;51092;50.874;7.024;2022-12-18T02:34:08;37.05;;;19.10;;
30888;SDS011;51092;50.874;7.024;2022-12-18T02:35:14;30.45;;;17.23;;
30888;SDS011;51092;50.874;7.024;2022-12-18T02:36:18;35.15;;;17.95;;
30888;SDS011;51092;50.874;7.024;2022-12-18T02:37:23;31.48;;;17.13;;
30888;SDS011;51092;50.874;7.024;2022-12-18T02:38:27;37.00;;;20.13;;
30888;SDS011;51092;50.874;7.024;2022-12-18T02:39:33;33.78;;;19.13;;
30888;SDS011;51092;50.874;7.024;2022-12-18T02:40:38;27.63;;;17.38;;
30888;SDS011;51092;50.874;7.024;2022-12-18T02:41:43;33.58;;;17.10;;
30888;SDS011;51092;50.874;7.024;2022-12-18T02:42:45;37.00;;;18.17;;
30888;SDS011;51092;50.874;7.024;2022-12-18T02:43:48;32.70;;;16.63;;
30888;SDS011;51092;50.874;7.024;2022-12-18T02:44:51;34.95;;;17.70;;
30888;SDS011;51092;50.874;7.024;2022-12-18T02:45:57;28.42;;;17.10;;
30888;SDS011;51092;50.874;7.024;2022-12-18T02:47:00;31.10;;;16.40;;
30888;SDS011;51092;50.874;7.024;2022-12-18T02:48:03;32.97;;;17.38;;
30888;SDS011;51092;50.874;7.024;2022-12-18T02:49:06;34.63;;;18.52;;
30888;SDS011;51092;50.874;7.024;2022-12-18T02:50:18;32.88;;;18.42;;
30888;SDS011;51092;50.874;7.024;2022-12-18T02:51:27;36.22;;;19.27;;
30888;SDS011;51092;50.874;7.024;2022-12-18T02:52:34;31.52;;;17.55;;
30888;SDS011;51092;50.874;7.024;2022-12-18T02:53:43;31.90;;;17.55;;
30888;SDS011;51092;50.874;7.024;2022-12-18T02:54:51;31.95;;;18.10;;
30888;SDS011;51092;50.874;7.024;2022-12-18T02:56:02;33.38;;;17.85;;
30888;SDS011;51092;50.874;7.024;2022-12-18T02:57:11;30.70;;;17.67;;
30888;SDS011;51092;50.874;7.024;2022-12-18T02:58:17;33.05;;;17.85;;
30888;SDS011;51092;50.874;7.024;2022-12-18T02:59:23;32.00;;;16.70;;
30888;SDS011;51092;50.874;7.024;2022-12-18T03:00:31;34.88;;;19.65;;
30888;SDS011;51092;50.874;7.024;2022-12-18T03:01:43;34.65;;;18.02;;
30888;SDS011;51092;50.874;7.024;2022-12-18T03:02:51;31.17;;;17.83;;
30888;SDS011;51092;50.874;7.024;2022-12-18T03:03:59;29.23;;;18.33;;
30888;SDS011;51092;50.874;7.024;2022-12-18T03:05:04;27.55;;;16.50;;
30888;SDS011;51092;50.874;7.024;2022-12-18T03:06:12;30.23;;;17.13;;
30888;SDS011;51092;50.874;7.024;2022-12-18T03:07:20;32.00;;;16.95;;
30888;SDS011;51092;50.874;7.024;2022-12-18T03:08:27;28.73;;;16.75;;
30888;SDS011;51092;50.874;7.024;2022-12-18T03:09:33;29.85;;;18.10;;
30888;SDS011;51092;50.874;7.024;2022-12-18T03:10:39;31.27;;;16.23;;
30888;SDS011;51092;50.874;7.024;2022-12-18T03:11:47;35.03;;;18.73;;
30888;SDS011;51092;50.874;7.024;2022-12-18T03:13:13;36.42;;;16.75;;
30888;SDS011;51092;50.874;7.024;2022-12-18T03:14:22;31.08;;;18.02;;
30888;SDS011;51092;50.874;7.024;2022-12-18T03:15:27;36.00;;;17.13;;
30888;SDS011;51092;50.874;7.024;2022-12-18T03:16:31;26.85;;;15.73;;
30888;SDS011;51092;50.874;7.024;2022-12-18T03:17:35;30.80;;;17.13;;
30888;SDS011;51092;50.874;7.024;2022-12-18T03:18:42;34.17;;;17.23;;
30888;SDS011;51092;50.874;7.024;2022-12-18T03:19:48;33.45;;;17.63;;
30888;SDS011;51092;50.874;7.024;2022-12-18T03:20:53;30.40;;;17.75;;
30888;SDS011;51092;50.874;7.024;2022-12-18T03:22:00;27.23;;;16.88;;
30888;SDS011;51092;50.874;7.024;2022-12-18T03:23:06;31.20;;;17.25;;
30888;SDS011;51092;50.874;7.024;2022-12-18T03:24:11;29.23;;;16.48;;
30888;SDS011;51092;50.874;7.024;2022-12-18T03:25:15;28.25;;;15.63;;
30888;SDS011;51092;50.874;7.024;2022-12-18T03:26:19;30.25;;;16.15;;
30888;SDS011;51092;50.874;7.024;2022-12-18T03:27:24;33.47;;;16.48;;
30888;SDS011;51092;50.874;7.024;2022-12-18T03:28:29;31.13;;;15.80;;
30888;SDS011;51092;50.874;7.024;2022-12-18T03:29:34;32.70;;;18.02;;
30888;SDS011;51092;50.874;7.024;2022-12-18T03:30:39;36.55;;;17.92;;
30888;SDS011;51092;50.874;7.024;2022-12-18T03:31:45;28.13;;;15.30;;
30888;SDS011;51092;50.874;7.024;2022-12-18T03:32:51;30.38;;;17.17;;
30888;SDS011;51092;50.874;7.024;2022-12-18T03:33:58;33.70;;;16.98;;
30888;SDS011;51092;50.874;7.024;2022-12-18T03:35:03;30.42;;;16.42;;
30888;SDS011;51092;50.874;7.024;2022-12-18T03:36:07;29.90;;;16.65;;
30888;SDS011;51092;50.874;7.024;2022-12-18T03:37:09;35.08;;;17.02;;
30888;SDS011;51092;50.874;7.024;2022-12-18T03:38:11;31.95;;;17.58;;
30888;SDS011;51092;50.874;7.024;2022-12-18T03:39:13;28.92;;;16.77;;
30888;SDS011;51092;50.874;7.024;2022-12-18T03:40:16;32.25;;;17.20;;
30888;SDS011;51092;50.874;7.024;2022-12-18T03:41:18;30.85;;;16.95;;
30888;SDS011;51092;50.874;7.024;2022-12-18T03:42:27;29.23;;;16.05;;
30888;SDS011;51092;50.874;7.024;2022-12-18T03:43:40;31.95;;;18.52;;
30888;SDS011;51092;50.874;7.024;2022-12-18T03:44:52;31.55;;;16.63;;
30888;SDS011;51092;50.874;7.024;2022-12-18T03:45:59;33.15;;;16.17;;
30888;SDS011;51092;50.874;7.024;2022-12-18T03:47:05;29.05;;;16.50;;
30888;SDS011;51092;50.874;7.024;2022-12-18T03:48:11;32.33;;;17.75;;
30888;SDS011;51092;50.874;7.024;2022-12-18T03:49:19;29.45;;;16.45;;
30888;SDS011;51092;50.874;7.024;2022-12-18T03:50:28;37.42;;;18.70;;
30888;SDS011;51092;50.874;7.024;2022-12-18T03:51:39;30.05;;;15.98;;
30888;SDS011;51092;50.874;7.024;2022-12-18T03:52:44;32.70;;;17.35;;
30888;SDS011;51092;50.874;7.024;2022-12-18T03:53:51;32.88;;;16.90;;
30888;SDS011;51092;50.874;7.024;2022-12-18T03:54:56;26.65;;;16.42;;
30888;SDS011;51092;50.874;7.024;2022-12-18T03:56:01;33.25;;;18.60;;
30888;SDS011;51092;50.874;7.024;2022-12-18T03:57:06;35.92;;;19.25;;
30888;SDS011;51092;50.874;7.024;2022-12-18T03:58:12;30.10;;;16.10;;
30888;SDS011;51092;50.874;7.024;2022-12-18T03:59:20;34.10;;;17.00;;
30888;SDS011;51092;50.874;7.024;2022-12-18T04:00:24;28.40;;;16.88;;
30888;SDS011;51092;50.874;7.024;2022-12-18T04:01:27;28.77;;;15.73;;
30888;SDS011;51092;50.874;7.024;2022-12-18T04:02:33;32.60;;;18.05;;
30888;SDS011;51092;50.874;7.024;2022-12-18T04:03:38;35.30;;;18.15;;
30888;SDS011;51092;50.874;7.024;2022-12-18T04:04:41;33.10;;;18.48;;
30888;SDS011;51092;50.874;7.024;2022-12-18T04:05:43;35.30;;;18.27;;
30888;SDS011;51092;50.874;7.024;2022-12-18T04:06:47;31.80;;;18.98;;
30888;SDS011;51092;50.874;7.024;2022-12-18T04:07:50;34.40;;;18.33;;
30888;SDS011;51092;50.874;7.024;2022-12-18T04:08:53;36.55;;;18.25;;
30888;SDS011;51092;50.874;7.024;2022-12-18T04:09:55;35.40;;;18.17;;
30888;SDS011;51092;50.874;7.024;2022-12-18T04:11:00;32.92;;;18.80;;
30888;SDS011;51092;50.874;7.024;2022-12-18T04:12:02;33.05;;;17.98;;
30888;SDS011;51092;50.874;7.024;2022-12-18T04:13:05;31.27;;;17.65;;
30888;SDS011;51092;50.874;7.024;2022-12-18T04:14:06;34.15;;;18.83;;
30888;SDS011;51092;50.874;7.024;2022-12-18T04:15:11;37.03;;;19.45;;
30888;SDS011;51092;50.874;7.024;2022-12-18T04:16:13;32.08;;;17.75;;
30888;SDS011;51092;50.874;7.024;2022-12-18T04:17:15;36.40;;;19.02;;
30888;SDS011;51092;50.874;7.024;2022-12-18T04:18:17;31.30;;;17.88;;
30888;SDS011;51092;50.874;7.024;2022-12-18T04:19:19;35.17;;;19.73;;
30888;SDS011;51092;50.874;7.024;2022-12-18T04:20:20;33.22;;;18.70;;
30888;SDS011;51092;50.874;7.024;2022-12-18T04:21:23;34.47;;;19.33;;
30888;SDS011;51092;50.874;7.024;2022-12-18T04:22:24;40.80;;;19.05;;
30888;SDS011;51092;50.874;7.024;2022-12-18T04:23:27;36.75;;;19.35;;
30888;SDS011;51092;50.874;7.024;2022-12-18T04:24:29;39.38;;;20.95;;
30888;SDS011;51092;50.874;7.024;2022-12-18T04:25:31;40.65;;;20.77;;
30888;SDS011;51092;50.874;7.024;2022-12-18T04:26:32;35.28;;;18.65;;
30888;SDS011;51092;50.874;7.024;2022-12-18T04:27:34;31.88;;;18.63;;
30888;SDS011;51092;50.874;7.024;2022-12-18T04:28:35;34.25;;;18.40;;
30888;SDS011;51092;50.874;7.024;2022-12-18T04:29:37;32.95;;;18.98;;
30888;SDS011;51092;50.874;7.024;2022-12-18T04:30:39;40.05;;;20.35;;
30888;SDS011;51092;50.874;7.024;2022-12-18T04:31:42;38.33;;;20.63;;
30888;SDS011;51092;50.874;7.024;2022-12-18T04:32:43;36.75;;;19.10;;
30888;SDS011;51092;50.874;7.024;2022-12-18T04:33:46;39.78;;;19.50;;
30888;SDS011;51092;50.874;7.024;2022-12-18T04:34:47;35.47;;;19.13;;
30888;SDS011;51092;50.874;7.024;2022-12-18T04:35:49;37.17;;;19.60;;
30888;SDS011;51092;50.874;7.024;2022-12-18T04:36:51;37.15;;;20.45;;
30888;SDS011;51092;50.874;7.024;2022-12-18T04:37:54;39.30;;;20.20;;
30888;SDS011;51092;50.874;7.024;2022-12-18T04:38:55;41.15;;;19.38;;
30888;SDS011;51092;50.874;7.024;2022-12-18T04:39:58;37.55;;;20.63;;
30888;SDS011;51092;50.874;7.024;2022-12-18T04:40:59;40.90;;;21.00;;
30888;SDS011;51092;50.874;7.024;2022-12-18T04:42:02;36.97;;;20.05;;
30888;SDS011;51092;50.874;7.024;2022-12-18T04:43:03;38.50;;;20.30;;
30888;SDS011;51092;50.874;7.024;2022-12-18T04:44:06;35.65;;;19.60;;
30888;SDS011;51092;50.874;7.024;2022-12-18T04:45:08;38.60;;;20.08;;
30888;SDS011;51092;50.874;7.024;2022-12-18T04:46:12;37.33;;;19.73;;
30888;SDS011;51092;50.874;7.024;2022-12-18T04:47:13;34.08;;;18.23;;
30888;SDS011;51092;50.874;7.024;2022-12-18T04:48:16;43.47;;;20.60;;
30888;SDS011;51092;50.874;7.024;2022-12-18T04:49:17;38.13;;;20.88;;
30888;SDS011;51092;50.874;7.024;2022-12-18T04:50:20;34.35;;;19.00;;
30888;SDS011;51092;50.874;7.024;2022-12-18T04:51:21;35.08;;;19.77;;
30888;SDS011;51092;50.874;7.024;2022-12-18T04:52:24;39.45;;;22.30;;
30888;SDS011;51092;50.874;7.024;2022-12-18T04:53:25;38.38;;;20.75;;
30888;SDS011;51092;50.874;7.024;2022-12-18T04:54:28;31.83;;;19.23;;
30888;SDS011;51092;50.874;7.024;2022-12-18T04:55:29;41.72;;;20.83;;
30888;SDS011;51092;50.874;7.024;2022-12-18T04:56:32;40.88;;;20.55;;
30888;SDS011;51092;50.874;7.024;2022-12-18T04:57:33;36.20;;;21.15;;
30888;SDS011;51092;50.874;7.024;2022-12-18T04:58:36;43.38;;;21.75;;
30888;SDS011;51092;50.874;7.024;2022-12-18T04:59:38;45.88;;;21.77;;
30888;SDS011;51092;50.874;7.024;2022-12-18T05:00:41;41.55;;;21.58;;
30888;SDS011;51092;50.874;7.024;2022-12-18T05:01:43;39.92;;;20.15;;
30888;SDS011;51092;50.874;7.024;2022-12-18T05:02:46;38.50;;;20.05;;
30888;SDS011;51092;50.874;7.024;2022-12-18T05:03:47;41.63;;;21.73;;
30888;SDS011;51092;50.874;7.024;2022-12-18T05:04:50;40.75;;;20.55;;
30888;SDS011;51092;50.874;7.024;2022-12-18T05:05:52;39.60;;;20.15;;
30888;SDS011;51092;50.874;7.024;2022-12-18T05:06:54;35.20;;;19.65;;
30888;SDS011;51092;50.874;7.024;2022-12-18T05:07:56;44.47;;;23.35;;
30888;SDS011;51092;50.874;7.024;2022-12-18T05:08:58;40.70;;;20.50;;
30888;SDS011;51092;50.874;7.024;2022-12-18T05:10:00;42.35;;;21.27;;
30888;SDS011;51092;50.874;7.024;2022-12-18T05:11:03;41.85;;;21.30;;
30888;SDS011;51092;50.874;7.024;2022-12-18T05:12:05;36.10;;;21.02;;
30888;SDS011;51092;50.874;7.024;2022-12-18T05:13:08;41.15;;;22.63;;
30888;SDS011;51092;50.874;7.024;2022-12-18T05:14:09;37.50;;;21.38;;
30888;SDS011;51092;50.874;7.024;2022-12-18T05:15:13;38.95;;;21.20;;
30888;SDS011;51092;50.874;7.024;2022-12-18T05:16:14;37.72;;;20.58;;
30888;SDS011;51092;50.874;7.024;2022-12-18T05:17:18;37.00;;;19.77;;
30888;SDS011;51092;50.874;7.024;2022-12-18T05:18:20;35.20;;;19.85;;
30888;SDS011;51092;50.874;7.024;2022-12-18T05:19:22;40.33;;;21.67;;
30888;SDS011;51092;50.874;7.024;2022-12-18T05:20:24;42.60;;;21.48;;
30888;SDS011;51092;50.874;7.024;2022-12-18T05:21:27;36.95;;;19.80;;
30888;SDS011;51092;50.874;7.024;2022-12-18T05:22:28;42.65;;;20.98;;
30888;SDS011;51092;50.874;7.024;2022-12-18T05:23:31;36.08;;;19.98;;
30888;SDS011;51092;50.874;7.024;2022-12-18T05:24:35;41.17;;;21.63;;
30888;SDS011;51092;50.874;7.024;2022-12-18T05:25:37;42.92;;;22.33;;
30888;SDS011;51092;50.874;7.024;2022-12-18T05:26:39;38.50;;;20.27;;
30888;SDS011;51092;50.874;7.024;2022-12-18T05:27:41;37.70;;;19.85;;
30888;SDS011;51092;50.874;7.024;2022-12-18T05:28:43;38.83;;;19.23;;
30888;SDS011;51092;50.874;7.024;2022-12-18T05:29:46;37.10;;;22.05;;
30888;SDS011;51092;50.874;7.024;2022-12-18T05:30:49;42.42;;;20.27;;
30888;SDS011;51092;50.874;7.024;2022-12-18T05:31:52;37.47;;;19.33;;
30888;SDS011;51092;50.874;7.024;2022-12-18T05:32:55;41.10;;;21.88;;
30888;SDS011;51092;50.874;7.024;2022-12-18T05:33:57;40.05;;;20.83;;
30888;SDS011;51092;50.874;7.024;2022-12-18T05:34:59;35.67;;;19.15;;
30888;SDS011;51092;50.874;7.024;2022-12-18T05:36:02;39.60;;;21.80;;
30888;SDS011;51092;50.874;7.024;2022-12-18T05:37:06;39.33;;;21.38;;
30888;SDS011;51092;50.874;7.024;2022-12-18T05:38:07;41.75;;;21.17;;
30888;SDS011;51092;50.874;7.024;2022-12-18T05:39:10;45.22;;;20.60;;
30888;SDS011;51092;50.874;7.024;2022-12-18T05:40:11;36.65;;;19.65;;
30888;SDS011;51092;50.874;7.024;2022-12-18T05:41:14;38.95;;;20.58;;
30888;SDS011;51092;50.874;7.024;2022-12-18T05:42:16;37.42;;;21.23;;
30888;SDS011;51092;50.874;7.024;2022-12-18T05:43:19;39.00;;;22.42;;
30888;SDS011;51092;50.874;7.024;2022-12-18T05:44:22;37.20;;;20.85;;
30888;SDS011;51092;50.874;7.024;2022-12-18T05:45:25;43.50;;;22.67;;
30888;SDS011;51092;50.874;7.024;2022-12-18T05:46:26;37.88;;;20.15;;
30888;SDS011;51092;50.874;7.024;2022-12-18T05:47:29;40.78;;;20.50;;
30888;SDS011;51092;50.874;7.024;2022-12-18T05:48:31;38.10;;;21.00;;
30888;SDS011;51092;50.874;7.024;2022-12-18T05:49:34;35.00;;;20.13;;
30888;SDS011;51092;50.874;7.024;2022-12-18T05:50:35;42.65;;;20.67;;
30888;SDS011;51092;50.874;7.024;2022-12-18T05:51:38;40.08;;;20.67;;
30888;SDS011;51092;50.874;7.024;2022-12-18T05:52:40;42.97;;;22.05;;
30888;SDS011;51092;50.874;7.024;2022-12-18T05:53:42;38.75;;;19.73;;
30888;SDS011;51092;50.874;7.024;2022-12-18T05:54:44;38.75;;;20.95;;
30888;SDS011;51092;50.874;7.024;2022-12-18T05:55:46;38.40;;;20.20;;
30888;SDS011;51092;50.874;7.024;2022-12-18T05:56:48;37.00;;;21.05;;
30888;SDS011;51092;50.874;7.024;2022-12-18T05:57:50;41.05;;;21.27;;
30888;SDS011;51092;50.874;7.024;2022-12-18T05:58:52;42.40;;;22.40;;
30888;SDS011;51092;50.874;7.024;2022-12-18T05:59:55;37.28;;;21.10;;
30888;SDS011;51092;50.874;7.024;2022-12-18T06:00:57;34.53;;;20.20;;
30888;SDS011;51092;50.874;7.024;2022-12-18T06:02:07;41.03;;;22.33;;
30888;SDS011;51092;50.874;7.024;2022-12-18T06:03:09;39.05;;;22.95;;
30888;SDS011;51092;50.874;7.024;2022-12-18T06:04:13;46.33;;;22.30;;
30888;SDS011;51092;50.874;7.024;2022-12-18T06:05:15;36.03;;;20.58;;
30888;SDS011;51092;50.874;7.024;2022-12-18T06:06:18;37.10;;;21.38;;
30888;SDS011;51092;50.874;7.024;2022-12-18T06:07:21;35.67;;;19.33;;
30888;SDS011;51092;50.874;7.024;2022-12-18T06:08:23;41.97;;;22.90;;
30888;SDS011;51092;50.874;7.024;2022-12-18T06:09:25;34.63;;;19.27;;
30888;SDS011;51092;50.874;7.024;2022-12-18T06:10:27;40.15;;;21.95;;
30888;SDS011;51092;50.874;7.024;2022-12-18T06:11:29;37.65;;;22.33;;
30888;SDS011;51092;50.874;7.024;2022-12-18T06:12:31;38.30;;;20.38;;
30888;SDS011;51092;50.874;7.024;2022-12-18T06:13:34;40.10;;;22.33;;
30888;SDS011;51092;50.874;7.024;2022-12-18T06:14:36;33.55;;;19.27;;
30888;SDS011;51092;50.874;7.024;2022-12-18T06:15:38;35.08;;;20.45;;